sensor_id;sensor_type;location;lat;lon;timestamp;pressure;altitude;pressure_sealevel;temperature;humidity
37972;BME280;23794;48.234;8.344;2023-02-11T00:02:13;96082.09;;;-3.67;75.87
37972;BME280;23794;48.234;8.344;2023-02-11T00:04:40;96080.47;;;-3.74;75.78
37972;BME280;23794;48.234;8.344;2023-02-11T00:07:06;96082.31;;;-3.74;75.54
37972;BME280;23794;48.234;8.344;2023-02-11T00:09:33;96083.41;;;-3.75;74.58
37972;BME280;23794;48.234;8.344;2023-02-11T00:12:00;96074.28;;;-3.84;74.49
37972;BME280;23794;48.234;8.344;2023-02-11T00:14:26;96084.44;;;-3.81;74.75
37972;BME280;23794;48.234;8.344;2023-02-11T00:16:53;96077.72;;;-3.94;76.24
37972;BME280;23794;48.234;8.344;2023-02-11T00:19:20;96070.22;;;-3.97;76.12
37972;BME280;23794;48.234;8.344;2023-02-11T00:21:47;96078.00;;;-3.91;75.88
37972;BME280;23794;48.234;8.344;2023-02-11T00:24:14;96064.31;;;-3.94;75.52
37972;BME280;23794;48.234;8.344;2023-02-11T00:26:40;96069.16;;;-3.91;75.99
37972;BME280;23794;48.234;8.344;2023-02-11T00:29:08;96070.22;;;-3.92;76.12
37972;BME280;23794;48.234;8.344;2023-02-11T00:31:35;96065.66;;;-3.97;76.18
37972;BME280;23794;48.234;8.344;2023-02-11T00:34:04;96069.66;;;-3.94;76.43
37972;BME280;23794;48.234;8.344;2023-02-11T00:36:31;96072.91;;;-3.92;76.07
37972;BME280;23794;48.234;8.344;2023-02-11T00:39:01;96077.47;;;-3.93;75.69
37972;BME280;23794;48.234;8.344;2023-02-11T00:41:29;96075.31;;;-3.91;76.04
37972;BME280;23794;48.234;8.344;2023-02-11T00:43:58;96079.31;;;-3.98;76.56
37972;BME280;23794;48.234;8.344;2023-02-11T00:46:25;96092.69;;;-4.04;76.80
37972;BME280;23794;48.234;8.344;2023-02-11T00:48:51;96093.19;;;-4.07;77.01
37972;BME280;23794;48.234;8.344;2023-02-11T00:51:20;96103.63;;;-4.10;76.56
37972;BME280;23794;48.234;8.344;2023-02-11T00:53:47;96117.22;;;-4.17;75.88
37972;BME280;23794;48.234;8.344;2023-02-11T00:56:14;96119.09;;;-4.18;75.34
37972;BME280;23794;48.234;8.344;2023-02-11T00:58:40;96123.13;;;-4.20;75.33
37972;BME280;23794;48.234;8.344;2023-02-11T01:01:09;96125.25;;;-4.17;75.56
37972;BME280;23794;48.234;8.344;2023-02-11T01:03:35;96123.66;;;-4.18;75.86
37972;BME280;23794;48.234;8.344;2023-02-11T01:06:03;96126.84;;;-4.21;75.73
37972;BME280;23794;48.234;8.344;2023-02-11T01:08:30;96133.56;;;-4.13;75.18
37972;BME280;23794;48.234;8.344;2023-02-11T01:10:59;96124.75;;;-4.14;74.90
37972;BME280;23794;48.234;8.344;2023-02-11T01:13:31;96128.19;;;-4.19;75.40
37972;BME280;23794;48.234;8.344;2023-02-11T01:15:58;96118.81;;;-4.26;75.64
37972;BME280;23794;48.234;8.344;2023-02-11T01:18:28;96111.34;;;-4.19;75.60
37972;BME280;23794;48.234;8.344;2023-02-11T01:20:54;96115.88;;;-4.20;75.81
37972;BME280;23794;48.234;8.344;2023-02-11T01:23:22;96100.59;;;-4.24;76.28
37972;BME280;23794;48.234;8.344;2023-02-11T01:25:49;96093.69;;;-4.15;75.96
37972;BME280;23794;48.234;8.344;2023-02-11T01:28:19;96096.63;;;-4.22;75.70
37972;BME280;23794;48.234;8.344;2023-02-11T01:30:46;96088.03;;;-4.24;75.90
37972;BME280;23794;48.234;8.344;2023-02-11T01:33:13;96091.78;;;-4.25;75.94
37972;BME280;23794;48.234;8.344;2023-02-11T01:35:42;96089.31;;;-4.31;75.91
37972;BME280;23794;48.234;8.344;2023-02-11T01:38:15;96082.34;;;-4.38;75.40
37972;BME280;23794;48.234;8.344;2023-02-11T01:40:53;96084.22;;;-4.38;75.54
37972;BME280;23794;48.234;8.344;2023-02-11T01:43:20;96080.22;;;-4.30;75.03
37972;BME280;23794;48.234;8.344;2023-02-11T01:46:05;96092.00;;;-4.31;75.09
37972;BME280;23794;48.234;8.344;2023-02-11T01:48:42;96082.09;;;-4.36;74.91
37972;BME280;23794;48.234;8.344;2023-02-11T01:51:20;96076.47;;;-4.35;75.35
37972;BME280;23794;48.234;8.344;2023-02-11T01:53:48;96083.66;;;-4.45;76.43
37972;BME280;23794;48.234;8.344;2023-02-11T01:56:38;96074.31;;;-4.38;75.82
37972;BME280;23794;48.234;8.344;2023-02-11T01:59:30;96079.66;;;-4.38;75.38
37972;BME280;23794;48.234;8.344;2023-02-11T02:02:01;96068.38;;;-4.45;76.02
37972;BME280;23794;48.234;8.344;2023-02-11T02:04:33;96072.38;;;-4.47;76.22
37972;BME280;23794;48.234;8.344;2023-02-11T02:07:16;96059.28;;;-4.49;76.04
37972;BME280;23794;48.234;8.344;2023-02-11T02:09:48;96059.50;;;-4.51;75.74
37972;BME280;23794;48.234;8.344;2023-02-11T02:12:18;96053.06;;;-4.60;76.50
37972;BME280;23794;48.234;8.344;2023-02-11T02:14:44;96047.19;;;-4.57;76.54
37972;BME280;23794;48.234;8.344;2023-02-11T02:17:25;96044.03;;;-4.48;75.94
37972;BME280;23794;48.234;8.344;2023-02-11T02:25:51;96031.47;;;-4.43;75.65
37972;BME280;23794;48.234;8.344;2023-02-11T02:34:08;96020.47;;;-4.52;76.80
37972;BME280;23794;48.234;8.344;2023-02-11T02:36:58;96025.28;;;-4.48;76.65
37972;BME280;23794;48.234;8.344;2023-02-11T02:39:30;96020.22;;;-4.50;76.69
37972;BME280;23794;48.234;8.344;2023-02-11T02:41:59;96012.47;;;-4.41;76.36
37972;BME280;23794;48.234;8.344;2023-02-11T02:44:27;96012.75;;;-4.38;75.76
37972;BME280;23794;48.234;8.344;2023-02-11T02:46:54;96016.25;;;-4.37;75.91
37972;BME280;23794;48.234;8.344;2023-02-11T02:49:21;96015.91;;;-4.51;76.59
37972;BME280;23794;48.234;8.344;2023-02-11T02:52:43;96020.72;;;-4.53;76.85
37972;BME280;23794;48.234;8.344;2023-02-11T02:57:38;96008.69;;;-4.51;76.45
37972;BME280;23794;48.234;8.344;2023-02-11T03:00:17;96000.16;;;-4.47;76.30
37972;BME280;23794;48.234;8.344;2023-02-11T03:03:16;95996.13;;;-4.55;76.53
37972;BME280;23794;48.234;8.344;2023-02-11T03:08:32;95998.31;;;-4.42;75.45
37972;BME280;23794;48.234;8.344;2023-02-11T03:11:01;95996.47;;;-4.36;76.40
37972;BME280;23794;48.234;8.344;2023-02-11T03:13:33;95993.78;;;-4.36;76.16
37972;BME280;23794;48.234;8.344;2023-02-11T03:16:08;95989.25;;;-4.30;76.37
37972;BME280;23794;48.234;8.344;2023-02-11T03:18:40;95994.59;;;-4.36;76.03
37972;BME280;23794;48.234;8.344;2023-02-11T03:21:09;95987.84;;;-4.48;75.74
37972;BME280;23794;48.234;8.344;2023-02-11T03:23:40;95992.91;;;-4.52;75.55
37972;BME280;23794;48.234;8.344;2023-02-11T03:26:17;95986.75;;;-4.53;75.71
37972;BME280;23794;48.234;8.344;2023-02-11T03:37:10;95992.53;;;-4.71;76.97
37972;BME280;23794;48.234;8.344;2023-02-11T03:39:43;95998.50;;;-4.59;76.11
37972;BME280;23794;48.234;8.344;2023-02-11T03:42:13;95991.56;;;-4.55;75.84
37972;BME280;23794;48.234;8.344;2023-02-11T03:44:57;95988.63;;;-4.53;75.68
37972;BME280;23794;48.234;8.344;2023-02-11T03:47:26;95990.78;;;-4.55;76.06
37972;BME280;23794;48.234;8.344;2023-02-11T03:49:56;95989.16;;;-4.56;76.36
37972;BME280;23794;48.234;8.344;2023-02-11T03:52:26;95986.72;;;-4.58;76.77
37972;BME280;23794;48.234;8.344;2023-02-11T03:54:56;95987.00;;;-4.54;76.47
37972;BME280;23794;48.234;8.344;2023-02-11T03:57:24;95984.88;;;-4.57;76.97
37972;BME280;23794;48.234;8.344;2023-02-11T03:59:56;95982.47;;;-4.59;77.21
37972;BME280;23794;48.234;8.344;2023-02-11T04:02:27;95985.94;;;-4.53;76.91
37972;BME280;23794;48.234;8.344;2023-02-11T04:04:55;95988.09;;;-4.55;76.68
37972;BME280;23794;48.234;8.344;2023-02-11T04:07:22;95981.69;;;-4.49;76.37
37972;BME280;23794;48.234;8.344;2023-02-11T04:09:49;95986.75;;;-4.53;76.50
37972;BME280;23794;48.234;8.344;2023-02-11T04:12:16;95990.22;;;-4.52;76.09
37972;BME280;23794;48.234;8.344;2023-02-11T04:14:43;95998.53;;;-4.54;76.14
37972;BME280;23794;48.234;8.344;2023-02-11T04:17:10;96008.41;;;-4.54;76.56
37972;BME280;23794;48.234;8.344;2023-02-11T04:19:37;96012.94;;;-4.60;76.68
37972;BME280;23794;48.234;8.344;2023-02-11T04:22:04;96017.53;;;-4.50;76.29
37972;BME280;23794;48.234;8.344;2023-02-11T04:24:31;96020.72;;;-4.53;76.45
37972;BME280;23794;48.234;8.344;2023-02-11T04:26:58;96030.94;;;-4.45;76.51
37972;BME280;23794;48.234;8.344;2023-02-11T04:29:25;96027.41;;;-4.51;76.41
37972;BME280;23794;48.234;8.344;2023-02-11T04:31:51;96022.03;;;-4.56;76.02
37972;BME280;23794;48.234;8.344;2023-02-11T04:34:18;96027.69;;;-4.52;75.61
37972;BME280;23794;48.234;8.344;2023-02-11T04:36:45;96023.69;;;-4.50;75.00
37972;BME280;23794;48.234;8.344;2023-02-11T04:39:11;96026.34;;;-4.50;75.17
37972;BME280;23794;48.234;8.344;2023-02-11T04:41:38;96022.06;;;-4.51;75.73
37972;BME280;23794;48.234;8.344;2023-02-11T04:44:05;96026.88;;;-4.53;76.22
37972;BME280;23794;48.234;8.344;2023-02-11T04:46:32;96020.22;;;-4.50;76.23
37972;BME280;23794;48.234;8.344;2023-02-11T04:48:58;96034.44;;;-4.44;75.98
37972;BME280;23794;48.234;8.344;2023-02-11T04:51:25;96034.34;;;-4.55;76.00
37972;BME280;23794;48.234;8.344;2023-02-11T04:53:52;96028.50;;;-4.52;75.48
37972;BME280;23794;48.234;8.344;2023-02-11T04:56:19;96033.53;;;-4.60;76.03
37972;BME280;23794;48.234;8.344;2023-02-11T04:58:45;96029.00;;;-4.55;75.53
37972;BME280;23794;48.234;8.344;2023-02-11T05:01:14;96035.72;;;-4.52;75.49
37972;BME280;23794;48.234;8.344;2023-02-11T05:03:41;96023.16;;;-4.52;75.34
37972;BME280;23794;48.234;8.344;2023-02-11T05:06:09;96029.28;;;-4.56;75.22
37972;BME280;23794;48.234;8.344;2023-02-11T05:08:36;96024.44;;;-4.54;75.00
37972;BME280;23794;48.234;8.344;2023-02-11T05:11:03;96022.03;;;-4.56;75.79
37972;BME280;23794;48.234;8.344;2023-02-11T05:13:31;96015.16;;;-4.46;75.57
37972;BME280;23794;48.234;8.344;2023-02-11T05:15:58;96009.78;;;-4.46;75.00
37972;BME280;23794;48.234;8.344;2023-02-11T05:18:24;96016.69;;;-4.56;74.94
37972;BME280;23794;48.234;8.344;2023-02-11T05:20:51;96022.59;;;-4.54;75.07
37972;BME280;23794;48.234;8.344;2023-02-11T05:23:18;96014.84;;;-4.50;75.37
37972;BME280;23794;48.234;8.344;2023-02-11T05:25:44;96019.66;;;-4.52;75.70
37972;BME280;23794;48.234;8.344;2023-02-11T05:28:11;96020.44;;;-4.57;75.86
37972;BME280;23794;48.234;8.344;2023-02-11T05:30:38;96021.75;;;-4.59;76.02
37972;BME280;23794;48.234;8.344;2023-02-11T05:33:05;96021.22;;;-4.61;75.71
37972;BME280;23794;48.234;8.344;2023-02-11T05:35:32;96017.47;;;-4.60;75.89
37972;BME280;23794;48.234;8.344;2023-02-11T05:38:01;96030.06;;;-4.61;75.96
37972;BME280;23794;48.234;8.344;2023-02-11T05:40:27;96029.78;;;-4.64;76.08
37972;BME280;23794;48.234;8.344;2023-02-11T05:42:54;96028.94;;;-4.65;76.27
37972;BME280;23794;48.234;8.344;2023-02-11T05:45:21;96010.00;;;-4.53;75.62
37972;BME280;23794;48.234;8.344;2023-02-11T05:47:48;96006.56;;;-4.48;75.09
37972;BME280;23794;48.234;8.344;2023-02-11T05:50:14;96001.47;;;-4.55;74.67
37972;BME280;23794;48.234;8.344;2023-02-11T05:52:41;96002.19;;;-4.65;75.47
37972;BME280;23794;48.234;8.344;2023-02-11T05:55:08;95991.84;;;-4.51;75.68
37972;BME280;23794;48.234;8.344;2023-02-11T05:57:35;95980.66;;;-4.38;76.00
37972;BME280;23794;48.234;8.344;2023-02-11T06:00:03;95973.22;;;-4.25;75.96
37972;BME280;23794;48.234;8.344;2023-02-11T06:02:37;95963.63;;;-4.11;75.28
37972;BME280;23794;48.234;8.344;2023-02-11T06:05:05;95963.88;;;-4.12;75.15
37972;BME280;23794;48.234;8.344;2023-02-11T06:07:32;95952.91;;;-4.11;75.12
37972;BME280;23794;48.234;8.344;2023-02-11T06:09:59;95953.75;;;-4.00;74.75
37972;BME280;23794;48.234;8.344;2023-02-11T06:12:25;95948.94;;;-3.93;74.94
37972;BME280;23794;48.234;8.344;2023-02-11T06:14:52;95943.56;;;-3.82;75.35
37972;BME280;23794;48.234;8.344;2023-02-11T06:17:19;95938.25;;;-3.77;75.16
37972;BME280;23794;48.234;8.344;2023-02-11T06:19:46;95940.13;;;-3.73;74.88
37972;BME280;23794;48.234;8.344;2023-02-11T06:22:12;95948.94;;;-3.72;74.92
37972;BME280;23794;48.234;8.344;2023-02-11T06:24:39;95931.53;;;-3.69;74.95
37972;BME280;23794;48.234;8.344;2023-02-11T06:27:25;95932.34;;;-3.59;75.03
37972;BME280;23794;48.234;8.344;2023-02-11T06:29:55;95924.84;;;-3.57;74.57
37972;BME280;23794;48.234;8.344;2023-02-11T06:32:22;95928.59;;;-3.58;74.50
37972;BME280;23794;48.234;8.344;2023-02-11T06:35:09;95926.47;;;-3.56;74.29
37972;BME280;23794;48.234;8.344;2023-02-11T06:37:38;95931.53;;;-3.54;73.62
37972;BME280;23794;48.234;8.344;2023-02-11T06:40:06;95933.44;;;-3.55;73.63
37972;BME280;23794;48.234;8.344;2023-02-11T06:42:33;95925.91;;;-3.52;73.16
37972;BME280;23794;48.234;8.344;2023-02-11T06:45:04;95927.53;;;-3.57;73.41
37972;BME280;23794;48.234;8.344;2023-02-11T06:47:31;95924.56;;;-3.55;73.75
37972;BME280;23794;48.234;8.344;2023-02-11T06:49:59;95935.03;;;-3.48;73.76
37972;BME280;23794;48.234;8.344;2023-02-11T06:52:25;95930.47;;;-3.43;74.02
37972;BME280;23794;48.234;8.344;2023-02-11T06:54:52;95925.09;;;-3.37;74.44
37972;BME280;23794;48.234;8.344;2023-02-11T06:57:20;95923.75;;;-3.30;74.23
37972;BME280;23794;48.234;8.344;2023-02-11T06:59:47;95923.47;;;-3.18;73.76
37972;BME280;23794;48.234;8.344;2023-02-11T07:02:16;95940.06;;;-3.05;73.18
37972;BME280;23794;48.234;8.344;2023-02-11T07:04:46;95945.94;;;-2.93;72.56
37972;BME280;23794;48.234;8.344;2023-02-11T07:07:13;95945.66;;;-2.86;73.40
37972;BME280;23794;48.234;8.344;2023-02-11T07:09:40;95958.50;;;-2.73;73.64
37972;BME280;23794;48.234;8.344;2023-02-11T07:12:09;95961.69;;;-2.61;73.42
37972;BME280;23794;48.234;8.344;2023-02-11T07:14:36;95974.28;;;-2.56;72.73
37972;BME280;23794;48.234;8.344;2023-02-11T07:17:03;95981.50;;;-2.51;72.98
37972;BME280;23794;48.234;8.344;2023-02-11T07:19:31;95973.72;;;-2.48;73.02
37972;BME280;23794;48.234;8.344;2023-02-11T07:22:00;95986.88;;;-2.51;71.73
37972;BME280;23794;48.234;8.344;2023-02-11T07:24:27;95987.47;;;-2.65;72.18
37972;BME280;23794;48.234;8.344;2023-02-11T07:26:54;95983.91;;;-2.50;72.03
37972;BME280;23794;48.234;8.344;2023-02-11T07:29:21;95994.91;;;-2.41;72.00
37972;BME280;23794;48.234;8.344;2023-02-11T07:31:55;95999.44;;;-2.31;71.93
37972;BME280;23794;48.234;8.344;2023-02-11T07:34:35;95998.88;;;-2.28;72.41
37972;BME280;23794;48.234;8.344;2023-02-11T07:37:02;95999.38;;;-2.21;72.21
37972;BME280;23794;48.234;8.344;2023-02-11T07:39:28;95994.00;;;-2.16;71.92
37972;BME280;23794;48.234;8.344;2023-02-11T07:41:56;95984.63;;;-2.23;71.11
37972;BME280;23794;48.234;8.344;2023-02-11T07:44:26;95984.63;;;-2.18;71.17
37972;BME280;23794;48.234;8.344;2023-02-11T07:46:52;95981.38;;;-2.20;70.75
37972;BME280;23794;48.234;8.344;2023-02-11T07:49:19;95987.56;;;-2.20;70.93
37972;BME280;23794;48.234;8.344;2023-02-11T07:51:46;95991.06;;;-2.19;71.13
37972;BME280;23794;48.234;8.344;2023-02-11T07:54:14;95995.31;;;-2.13;71.40
37972;BME280;23794;48.234;8.344;2023-02-11T07:56:41;95994.53;;;-2.14;71.98
37972;BME280;23794;48.234;8.344;2023-02-11T07:59:10;95990.13;;;-1.94;72.04
37972;BME280;23794;48.234;8.344;2023-02-11T08:01:37;96001.03;;;-1.75;71.80
37972;BME280;23794;48.234;8.344;2023-02-11T08:04:04;96004.72;;;-1.60;71.08
37972;BME280;23794;48.234;8.344;2023-02-11T08:06:32;95995.25;;;-1.53;70.53
37972;BME280;23794;48.234;8.344;2023-02-11T08:09:04;95998.28;;;-1.65;69.81
37972;BME280;23794;48.234;8.344;2023-02-11T08:11:34;96003.91;;;-1.61;69.78
37972;BME280;23794;48.234;8.344;2023-02-11T08:14:01;95995.81;;;-1.56;69.48
37972;BME280;23794;48.234;8.344;2023-02-11T08:16:32;95995.81;;;-1.56;70.16
37972;BME280;23794;48.234;8.344;2023-02-11T08:19:03;95986.66;;;-1.55;70.55
37972;BME280;23794;48.234;8.344;2023-02-11T08:21:30;95992.44;;;-1.37;70.24
37972;BME280;23794;48.234;8.344;2023-02-11T08:23:57;95970.44;;;-1.10;70.02
37972;BME280;23794;48.234;8.344;2023-02-11T08:26:28;95970.28;;;-0.94;69.45
37972;BME280;23794;48.234;8.344;2023-02-11T08:28:56;95972.97;;;-0.65;68.60
37972;BME280;23794;48.234;8.344;2023-02-11T08:31:29;95976.88;;;-0.52;67.85
37972;BME280;23794;48.234;8.344;2023-02-11T08:33:56;95975.66;;;-0.41;68.39
37972;BME280;23794;48.234;8.344;2023-02-11T08:36:25;95979.56;;;-0.28;67.92
37972;BME280;23794;48.234;8.344;2023-02-11T08:38:55;95978.34;;;-0.16;68.52
37972;BME280;23794;48.234;8.344;2023-02-11T08:41:42;95974.72;;;-0.07;68.05
37972;BME280;23794;48.234;8.344;2023-02-11T08:44:09;95978.66;;;0.01;67.16
37972;BME280;23794;48.234;8.344;2023-02-11T08:46:36;95987.41;;;0.12;66.22
37972;BME280;23794;48.234;8.344;2023-02-11T08:49:03;95994.78;;;0.25;67.01
37972;BME280;23794;48.234;8.344;2023-02-11T08:51:30;95997.69;;;0.48;66.92
37972;BME280;23794;48.234;8.344;2023-02-11T08:53:58;95992.91;;;0.78;66.52
37972;BME280;23794;48.234;8.344;2023-02-11T08:56:27;95988.94;;;1.09;65.26
37972;BME280;23794;48.234;8.344;2023-02-11T08:58:56;95995.47;;;1.35;65.07
37972;BME280;23794;48.234;8.344;2023-02-11T09:01:25;95988.66;;;1.38;64.48
37972;BME280;23794;48.234;8.344;2023-02-11T09:03:53;95988.09;;;1.41;64.13
37972;BME280;23794;48.234;8.344;2023-02-11T09:06:21;95986.19;;;1.56;64.05
37972;BME280;23794;48.234;8.344;2023-02-11T09:08:49;95984.72;;;1.63;63.95
37972;BME280;23794;48.234;8.344;2023-02-11T09:11:20;95988.41;;;1.67;63.88
37972;BME280;23794;48.234;8.344;2023-02-11T09:13:47;95991.91;;;1.68;63.76
37972;BME280;23794;48.234;8.344;2023-02-11T09:16:21;95990.28;;;1.81;64.52
37972;BME280;23794;48.234;8.344;2023-02-11T09:18:49;95988.06;;;2.11;63.92
37972;BME280;23794;48.234;8.344;2023-02-11T09:21:17;95983.28;;;2.08;63.62
37972;BME280;23794;48.234;8.344;2023-02-11T09:23:45;95984.31;;;1.84;62.97
37972;BME280;23794;48.234;8.344;2023-02-11T09:26:23;95980.50;;;1.71;63.78
37972;BME280;23794;48.234;8.344;2023-02-11T09:28:52;95978.50;;;1.63;64.15
37972;BME280;23794;48.234;8.344;2023-02-11T09:31:20;95970.69;;;1.47;63.84
37972;BME280;23794;48.234;8.344;2023-02-11T09:33:50;95974.47;;;1.46;64.40
37972;BME280;23794;48.234;8.344;2023-02-11T09:36:22;95975.91;;;1.58;64.97
37972;BME280;23794;48.234;8.344;2023-02-11T09:38:50;95981.50;;;1.75;64.08
37972;BME280;23794;48.234;8.344;2023-02-11T09:43:49;95982.66;;;2.11;63.78
37972;BME280;23794;48.234;8.344;2023-02-11T09:46:17;95985.94;;;2.22;62.83
37972;BME280;23794;48.234;8.344;2023-02-11T09:48:46;95994.34;;;2.34;63.14
37972;BME280;23794;48.234;8.344;2023-02-11T09:54:04;96006.81;;;2.58;62.15
37972;BME280;23794;48.234;8.344;2023-02-11T09:56:33;96001.59;;;2.61;61.45
37972;BME280;23794;48.234;8.344;2023-02-11T09:59:00;95997.53;;;2.73;61.11
37972;BME280;23794;48.234;8.344;2023-02-11T10:23:32;95991.13;;;4.35;57.57
37972;BME280;23794;48.234;8.344;2023-02-11T10:26:01;95989.03;;;4.40;57.54
37972;BME280;23794;48.234;8.344;2023-02-11T10:31:36;95989.06;;;4.67;56.54
37972;BME280;23794;48.234;8.344;2023-02-11T10:34:09;95994.03;;;4.65;56.23
37972;BME280;23794;48.234;8.344;2023-02-11T10:36:39;95983.16;;;4.74;56.54
37972;BME280;23794;48.234;8.344;2023-02-11T10:39:20;95972.59;;;4.90;56.53
37972;BME280;23794;48.234;8.344;2023-02-11T10:41:53;95976.31;;;5.02;55.30
37972;BME280;23794;48.234;8.344;2023-02-11T10:47:03;95969.09;;;5.15;55.93
37972;BME280;23794;48.234;8.344;2023-02-11T10:52:33;95971.03;;;5.62;53.88
37972;BME280;23794;48.234;8.344;2023-02-11T10:55:20;95968.72;;;5.82;53.61
37972;BME280;23794;48.234;8.344;2023-02-11T10:57:57;95963.94;;;5.79;52.71
37972;BME280;23794;48.234;8.344;2023-02-11T11:00:39;95969.09;;;6.02;52.51
37972;BME280;23794;48.234;8.344;2023-02-11T11:03:22;95961.00;;;5.93;52.20
37972;BME280;23794;48.234;8.344;2023-02-11T11:05:57;95956.25;;;6.11;52.93
37972;BME280;23794;48.234;8.344;2023-02-11T11:08:48;95943.66;;;6.27;51.89
37972;BME280;23794;48.234;8.344;2023-02-11T11:11:21;95939.06;;;6.40;51.92
37972;BME280;23794;48.234;8.344;2023-02-11T11:21:45;95933.16;;;6.81;50.30
37972;BME280;23794;48.234;8.344;2023-02-11T11:26:51;95922.44;;;6.97;50.07
37972;BME280;23794;48.234;8.344;2023-02-11T11:29:25;95927.03;;;7.17;50.03
37972;BME280;23794;48.234;8.344;2023-02-11T11:32:01;95923.56;;;7.29;48.98
37972;BME280;23794;48.234;8.344;2023-02-11T11:37:08;95921.91;;;7.16;49.53
37972;BME280;23794;48.234;8.344;2023-02-11T11:39:35;95919.22;;;7.28;48.75
37972;BME280;23794;48.234;8.344;2023-02-11T11:42:19;95913.19;;;7.35;48.54
37972;BME280;23794;48.234;8.344;2023-02-11T11:45:30;95910.16;;;7.36;47.40
37972;BME280;23794;48.234;8.344;2023-02-11T11:50:49;95907.16;;;7.63;47.92
37972;BME280;23794;48.234;8.344;2023-02-11T11:53:57;95898.06;;;7.71;47.71
37972;BME280;23794;48.234;8.344;2023-02-11T11:56:29;95896.81;;;7.81;47.54
37972;BME280;23794;48.234;8.344;2023-02-11T11:58:59;95895.75;;;7.73;47.25
37972;BME280;23794;48.234;8.344;2023-02-11T12:07:09;95879.06;;;7.87;47.14
37972;BME280;23794;48.234;8.344;2023-02-11T12:09:50;95880.53;;;7.84;45.67
37972;BME280;23794;48.234;8.344;2023-02-11T12:27:32;95870.91;;;8.40;42.95
37972;BME280;23794;48.234;8.344;2023-02-11T12:41:19;95862.22;;;8.95;41.57
37972;BME280;23794;48.234;8.344;2023-02-11T12:47:09;95862.59;;;9.09;41.59
37972;BME280;23794;48.234;8.344;2023-02-11T12:52:17;95864.72;;;9.16;41.77
37972;BME280;23794;48.234;8.344;2023-02-11T12:57:27;95858.25;;;9.53;41.61
37972;BME280;23794;48.234;8.344;2023-02-11T13:00:03;95855.31;;;9.61;40.79
37972;BME280;23794;48.234;8.344;2023-02-11T13:05:30;95858.03;;;9.77;40.61
37972;BME280;23794;48.234;8.344;2023-02-11T13:08:03;95856.50;;;9.96;40.82
37972;BME280;23794;48.234;8.344;2023-02-11T13:10:36;95859.50;;;10.07;41.36
37972;BME280;23794;48.234;8.344;2023-02-11T13:13:17;95860.59;;;9.86;40.37
37972;BME280;23794;48.234;8.344;2023-02-11T13:15:59;95857.66;;;9.95;41.46
37972;BME280;23794;48.234;8.344;2023-02-11T13:21:35;95865.56;;;10.16;41.57
37972;BME280;23794;48.234;8.344;2023-02-11T13:32:21;95856.38;;;9.57;42.13
37972;BME280;23794;48.234;8.344;2023-02-11T13:37:28;95855.13;;;9.70;41.83
37972;BME280;23794;48.234;8.344;2023-02-11T13:40:06;95850.50;;;9.90;41.56
37972;BME280;23794;48.234;8.344;2023-02-11T13:42:59;95850.84;;;10.05;40.14
37972;BME280;23794;48.234;8.344;2023-02-11T13:48:03;95855.59;;;10.08;40.23
37972;BME280;23794;48.234;8.344;2023-02-11T13:51:10;95844.28;;;10.09;39.58
37972;BME280;23794;48.234;8.344;2023-02-11T13:58:58;95841.25;;;10.15;41.04
37972;BME280;23794;48.234;8.344;2023-02-11T14:04:33;95840.88;;;9.97;41.19
37972;BME280;23794;48.234;8.344;2023-02-11T14:07:32;95835.97;;;9.70;40.60
37972;BME280;23794;48.234;8.344;2023-02-11T14:15:45;95840.25;;;9.52;42.03
37972;BME280;23794;48.234;8.344;2023-02-11T14:21:18;95829.97;;;9.17;41.86
37972;BME280;23794;48.234;8.344;2023-02-11T14:23:45;95838.63;;;9.03;41.58
37972;BME280;23794;48.234;8.344;2023-02-11T14:42:19;95852.44;;;7.84;46.47
37972;BME280;23794;48.234;8.344;2023-02-11T14:44:49;95851.91;;;7.66;47.47
37972;BME280;23794;48.234;8.344;2023-02-11T14:47:23;95856.00;;;7.60;47.60
37972;BME280;23794;48.234;8.344;2023-02-11T14:49:53;95857.13;;;7.34;47.99
37972;BME280;23794;48.234;8.344;2023-02-11T14:52:28;95862.03;;;6.95;48.11
37972;BME280;23794;48.234;8.344;2023-02-11T14:55:05;95861.81;;;6.54;49.14
37972;BME280;23794;48.234;8.344;2023-02-11T14:57:45;95865.19;;;6.29;49.93
37972;BME280;23794;48.234;8.344;2023-02-11T15:00:20;95869.97;;;6.33;50.74
37972;BME280;23794;48.234;8.344;2023-02-11T15:02:47;95879.28;;;6.32;50.90
37972;BME280;23794;48.234;8.344;2023-02-11T15:05:24;95871.63;;;6.04;50.82
37972;BME280;23794;48.234;8.344;2023-02-11T15:08:00;95876.97;;;5.91;51.65
37972;BME280;23794;48.234;8.344;2023-02-11T15:10:53;95882.78;;;5.60;52.62
37972;BME280;23794;48.234;8.344;2023-02-11T15:13:22;95880.31;;;5.37;52.32
37972;BME280;23794;48.234;8.344;2023-02-11T15:15:54;95871.28;;;5.15;53.46
37972;BME280;23794;48.234;8.344;2023-02-11T15:18:33;95878.53;;;4.94;54.36
37972;BME280;23794;48.234;8.344;2023-02-11T15:21:01;95883.97;;;4.85;54.76
37972;BME280;23794;48.234;8.344;2023-02-11T15:23:28;95877.16;;;4.52;55.53
37972;BME280;23794;48.234;8.344;2023-02-11T15:25:57;95881.78;;;4.34;56.81
37972;BME280;23794;48.234;8.344;2023-02-11T15:28:32;95885.94;;;4.14;56.93
37972;BME280;23794;48.234;8.344;2023-02-11T15:31:03;95876.84;;;4.19;57.08
37972;BME280;23794;48.234;8.344;2023-02-11T15:33:31;95879.56;;;4.10;56.98
37972;BME280;23794;48.234;8.344;2023-02-11T15:36:01;95882.28;;;4.01;57.60
37972;BME280;23794;48.234;8.344;2023-02-11T15:38:29;95888.94;;;3.95;57.08
37972;BME280;23794;48.234;8.344;2023-02-11T15:40:58;95890.38;;;3.84;58.31
37972;BME280;23794;48.234;8.344;2023-02-11T15:43:47;95885.44;;;3.86;58.54
37972;BME280;23794;48.234;8.344;2023-02-11T15:46:22;95891.16;;;3.75;58.62
37972;BME280;23794;48.234;8.344;2023-02-11T15:48:53;95887.44;;;3.63;58.88
37972;BME280;23794;48.234;8.344;2023-02-11T15:51:35;95892.84;;;3.54;59.30
37972;BME280;23794;48.234;8.344;2023-02-11T15:54:19;95889.81;;;3.47;59.55
37972;BME280;23794;48.234;8.344;2023-02-11T15:56:49;95897.72;;;3.34;60.09
37972;BME280;23794;48.234;8.344;2023-02-11T15:59:38;95899.47;;;3.30;60.55
37972;BME280;23794;48.234;8.344;2023-02-11T16:02:15;95902.59;;;3.23;60.35
37972;BME280;23794;48.234;8.344;2023-02-11T16:08:24;95901.59;;;3.10;60.96
37972;BME280;23794;48.234;8.344;2023-02-11T16:10:58;95901.72;;;3.05;61.05
37972;BME280;23794;48.234;8.344;2023-02-11T16:13:31;95910.16;;;3.04;61.30
37972;BME280;23794;48.234;8.344;2023-02-11T16:16:04;95918.72;;;2.97;61.82
37972;BME280;23794;48.234;8.344;2023-02-11T16:18:54;95923.03;;;2.98;61.90
37972;BME280;23794;48.234;8.344;2023-02-11T16:21:35;95926.19;;;2.91;62.41